createdAt,value
2022-12-11T00:00:39.977Z,99336.75
2022-12-11T00:03:09.181Z,99333.25
2022-12-11T00:05:40.812Z,99346.06
2022-12-11T00:09:11.559Z,99345.19
2022-12-11T00:11:39.016Z,99347.91
2022-12-11T00:14:07.899Z,99340.25
2022-12-11T00:16:35.551Z,99350.44
2022-12-11T00:19:02.110Z,99343.44
2022-12-11T00:21:30.736Z,99350.13
2022-12-11T00:26:42.578Z,99339.56
2022-12-11T00:29:14.851Z,99352.50
2022-12-11T00:31:42.400Z,99357.72
2022-12-11T00:34:09.818Z,99355.09
2022-12-11T00:36:36.608Z,99363.53
2022-12-11T00:39:04.629Z,99356.63
2022-12-11T00:41:31.716Z,99365.97
2022-12-11T00:43:58.450Z,99360.72
2022-12-11T00:46:25.554Z,99359.41
2022-12-11T00:48:53.645Z,99351.66
2022-12-11T00:51:23.198Z,99357.53
2022-12-11T00:53:50.467Z,99354.94
2022-12-11T00:56:20.801Z,99349.78
2022-12-11T00:58:48.483Z,99342.75
2022-12-11T01:01:18.967Z,99342.66
2022-12-11T01:03:46.344Z,99337.44
2022-12-11T01:06:17.780Z,99339.88
2022-12-11T01:08:45.546Z,99341.69
2022-12-11T01:11:15.054Z,99343.47
2022-12-11T01:13:42.626Z,99343.44
2022-12-11T01:16:12.457Z,99344.13
2022-12-11T01:18:40.996Z,99342.31
2022-12-11T01:21:09.913Z,99345.09
2022-12-11T01:23:36.787Z,99343.72
2022-12-11T01:26:16.230Z,99353.28
2022-12-11T01:28:44.545Z,99336.81
2022-12-11T01:31:19.915Z,99328.25
2022-12-11T01:33:48.302Z,99343.47
2022-12-11T01:36:19.846Z,99341.69
2022-12-11T01:38:47.992Z,99341.59
2022-12-11T01:41:17.275Z,99355.41
2022-12-11T01:44:00.630Z,99349.38
2022-12-11T01:46:28.640Z,99352.09
2022-12-11T01:48:56.410Z,99342.75
2022-12-11T01:51:24.589Z,99343.59
2022-12-11T01:54:01.361Z,99347.06
2022-12-11T01:56:30.426Z,99335.03
2022-12-11T01:59:06.659Z,99349.50
2022-12-11T02:01:47.251Z,99348.53
2022-12-11T02:04:15.646Z,99344.97
2022-12-11T02:06:47.066Z,99348.13
2022-12-11T02:09:16.318Z,99342.13
2022-12-11T02:11:48.478Z,99344.00
2022-12-11T02:14:33.370Z,99344.97
2022-12-11T02:17:13.976Z,99333.03
2022-12-11T02:20:03.307Z,99341.47
2022-12-11T02:22:40.274Z,99348.34
2022-12-11T02:25:48.137Z,99342.34
2022-12-11T02:28:30.026Z,99343.19
2022-12-11T02:31:36.568Z,99348.38
2022-12-11T02:34:11.365Z,99358.06
2022-12-11T02:36:41.320Z,99349.34
2022-12-11T02:39:10.574Z,99352.63
2022-12-11T02:41:41.104Z,99359.47
2022-12-11T02:44:08.631Z,99354.13
2022-12-11T02:46:37.462Z,99346.28
2022-12-11T02:49:05.618Z,99357.25
2022-12-11T02:51:34.923Z,99351.44
2022-12-11T02:54:01.619Z,99353.13
2022-12-11T02:56:33.376Z,99332.03
2022-12-11T02:59:06.590Z,99326.25
2022-12-11T03:01:33.443Z,99320.34
2022-12-11T03:04:00.219Z,99335.78
2022-12-11T03:06:33.616Z,99339.28
2022-12-11T03:09:00.609Z,99334.63
2022-12-11T03:11:27.241Z,99343.06
2022-12-11T03:13:54.387Z,99339.47
2022-12-11T03:16:26.028Z,99346.28
2022-12-11T03:19:03.685Z,99350.63
2022-12-11T03:21:41.268Z,99339.47
2022-12-11T03:24:19.837Z,99338.44
2022-12-11T03:26:56.575Z,99344.63
2022-12-11T03:29:26.686Z,99336.03
2022-12-11T03:31:58.297Z,99354.13
2022-12-11T03:34:35.684Z,99350.69
2022-12-11T03:37:06.687Z,99352.38
2022-12-11T03:39:38.102Z,99346.56
2022-12-11T03:42:09.009Z,99351.94
2022-12-11T03:44:36.740Z,99345.25
2022-12-11T03:47:07.730Z,99358.94
2022-12-11T03:49:40.844Z,99358.22
2022-12-11T03:52:09.958Z,99346.97
2022-12-11T03:54:39.265Z,99348.63
2022-12-11T03:57:06.837Z,99339.13
2022-12-11T03:59:33.557Z,99358.88
2022-12-11T04:02:00.277Z,99362.91
2022-12-11T04:04:28.342Z,99351.63
2022-12-11T04:06:55.186Z,99354.28
2022-12-11T04:09:22.020Z,99348.22
2022-12-11T04:11:48.635Z,99359.22
2022-12-11T04:14:34.434Z,99341.84
2022-12-11T04:17:01.495Z,99350.28
2022-12-11T04:19:47.353Z,99339.00
2022-12-11T04:22:34.882Z,99353.50
2022-12-11T04:25:02.402Z,99353.75
2022-12-11T04:27:48.547Z,99353.75
2022-12-11T04:30:21.460Z,99350.50
2022-12-11T04:32:48.321Z,99349.38
2022-12-11T04:35:15.141Z,99350.28
2022-12-11T04:37:42.403Z,99354.59
2022-12-11T04:40:15.406Z,99333.03
2022-12-11T04:42:42.713Z,99338.34
2022-12-11T04:45:10.483Z,99330.50
2022-12-11T04:47:39.013Z,99337.09
2022-12-11T04:50:07.444Z,99352.38
2022-12-11T04:52:34.254Z,99335.16
2022-12-11T04:55:00.975Z,99334.19
2022-12-11T04:57:28.117Z,99306.88
2022-12-11T04:59:54.890Z,99317.06
2022-12-11T05:02:23.687Z,99319.69
2022-12-11T05:04:50.576Z,99306.88
2022-12-11T05:07:17.410Z,99337.56
2022-12-11T05:09:44.195Z,99332.47
2022-12-11T05:12:10.942Z,99327.41
2022-12-11T05:14:37.678Z,99336.09
2022-12-11T05:17:04.406Z,99326.72
2022-12-11T05:19:31.219Z,99324.28
2022-12-11T05:21:57.986Z,99329.38
2022-12-11T05:24:24.750Z,99303.75
2022-12-11T05:26:51.452Z,99310.78
2022-12-11T05:29:21.680Z,99316.09
2022-12-11T05:31:48.582Z,99328.06
2022-12-11T05:34:16.174Z,99322.19
2022-12-11T05:36:42.980Z,99317.03
2022-12-11T05:39:11.791Z,99319.69
2022-12-11T05:41:38.575Z,99311.00
2022-12-11T05:44:05.666Z,99306.66
2022-12-11T05:46:32.652Z,99303.09
2022-12-11T05:49:17.523Z,99274.91
2022-12-11T05:51:47.716Z,99295.50
2022-12-11T05:54:14.913Z,99293.66
2022-12-11T05:56:42.924Z,99290.19
2022-12-11T05:59:09.641Z,99302.50
2022-12-11T06:01:40.250Z,99305.94
2022-12-11T06:04:09.242Z,99311.13
2022-12-11T06:06:36.601Z,99304.41
2022-12-11T06:09:04.741Z,99294.03
2022-12-11T06:11:32.390Z,99288.09
2022-12-11T06:14:00.573Z,99299.22
2022-12-11T06:16:27.520Z,99273.66
2022-12-11T06:18:58.034Z,99290.72
2022-12-11T06:21:33.029Z,99283.94
2022-12-11T06:24:02.557Z,99293.38
2022-12-11T06:26:32.446Z,99296.84
2022-12-11T06:28:59.950Z,99298.38
2022-12-11T06:31:26.830Z,99290.84
2022-12-11T06:33:54.411Z,99298.50
2022-12-11T06:36:23.768Z,99300.28
2022-12-11T06:38:50.485Z,99300.38
2022-12-11T06:41:17.611Z,99292.72
2022-12-11T06:43:46.058Z,99298.56
2022-12-11T06:46:15.892Z,99301.63
2022-12-11T06:48:43.274Z,99295.78
2022-12-11T06:51:13.763Z,99301.63
2022-12-11T06:53:41.425Z,99287.81
2022-12-11T06:56:12.092Z,99293.78
2022-12-11T06:58:39.694Z,99295.25
2022-12-11T07:01:15.708Z,99283.97
2022-12-11T07:03:42.385Z,99293.34
2022-12-11T07:06:09.308Z,99290.75
2022-12-11T07:08:36.474Z,99282.13
2022-12-11T07:11:08.531Z,99292.41
2022-12-11T07:13:35.668Z,99273.44
2022-12-11T07:16:04.661Z,99276.88
2022-12-11T07:18:32.507Z,99283.69
2022-12-11T07:21:00.672Z,99284.72
2022-12-11T07:23:28.747Z,99293.34
2022-12-11T07:25:56.846Z,99275.44
2022-12-11T07:28:24.551Z,99285.56
2022-12-11T07:30:51.351Z,99296.59
2022-12-11T07:33:18.491Z,99290.94
2022-12-11T07:35:45.161Z,99292.81
2022-12-11T07:38:11.935Z,99309.13
2022-12-11T07:40:38.592Z,99299.91
2022-12-11T07:43:05.186Z,99299.16
2022-12-11T07:45:32.124Z,99306.19
2022-12-11T07:47:59.028Z,99311.97
2022-12-11T07:50:25.551Z,99314.84
2022-12-11T07:52:52.589Z,99308.53
2022-12-11T07:55:19.160Z,99311.88
2022-12-11T07:57:45.547Z,99307.44
2022-12-11T08:00:12.240Z,99308.25
2022-12-11T08:02:41.331Z,99309.91
2022-12-11T08:05:08.727Z,99314.19
2022-12-11T08:07:35.705Z,99314.38
2022-12-11T08:10:02.811Z,99315.53
2022-12-11T08:12:29.293Z,99318.84
2022-12-11T08:14:55.683Z,99323.97
2022-12-11T08:17:27.368Z,99333.50
2022-12-11T08:19:55.912Z,99322.22
2022-12-11T08:22:22.287Z,99329.75
2022-12-11T08:24:48.792Z,99330.47
2022-12-11T08:27:15.249Z,99334.53
2022-12-11T08:29:41.621Z,99322.28
2022-12-11T08:32:12.277Z,99321.03
2022-12-11T08:34:39.336Z,99316.25
2022-12-11T08:37:05.831Z,99322.38
2022-12-11T08:39:32.222Z,99319.72
2022-12-11T08:41:58.601Z,99323.16
2022-12-11T08:44:26.709Z,99318.66
2022-12-11T08:46:53.178Z,99316.84
2022-12-11T08:49:19.660Z,99319.47
2022-12-11T08:51:46.124Z,99315.13
2022-12-11T08:54:12.664Z,99316.78
2022-12-11T08:56:39.295Z,99318.22
2022-12-11T08:59:06.228Z,99320.56
2022-12-11T09:01:32.868Z,99321.44
2022-12-11T09:03:59.297Z,99319.50
2022-12-11T09:06:27.129Z,99319.50
2022-12-11T09:08:54.631Z,99323.88
2022-12-11T09:11:26.608Z,99329.19
2022-12-11T09:13:53.104Z,99331.84
2022-12-11T09:16:22.113Z,99324.13
2022-12-11T09:18:50.105Z,99326.13
2022-12-11T09:21:19.650Z,99322.66
2022-12-11T09:23:46.236Z,99334.00
2022-12-11T09:26:14.653Z,99334.06
2022-12-11T09:28:46.298Z,99333.19
2022-12-11T09:31:26.800Z,99334.69
2022-12-11T09:33:59.485Z,99332.88
2022-12-11T09:36:26.382Z,99330.19
2022-12-11T09:38:52.920Z,99324.88
2022-12-11T09:41:22.275Z,99322.97
2022-12-11T09:44:07.898Z,99312.44
2022-12-11T09:46:34.930Z,99315.28
2022-12-11T09:49:03.514Z,99316.25
2022-12-11T09:51:43.053Z,99307.75
2022-12-11T09:54:11.660Z,99316.38
2022-12-11T09:57:03.233Z,99318.03
2022-12-11T09:59:47.849Z,99329.31
2022-12-11T10:02:35.862Z,99320.56
2022-12-11T10:05:17.272Z,99321.28
2022-12-11T10:08:00.655Z,99322.09
2022-12-11T10:10:43.661Z,99316.84
2022-12-11T10:13:46.890Z,99316.88
2022-12-11T10:16:20.668Z,99309.94
2022-12-11T10:18:48.818Z,99298.69
2022-12-11T10:21:16.366Z,99293.16
2022-12-11T10:24:00.995Z,99291.00
2022-12-11T10:26:28.970Z,99291.59
2022-12-11T10:28:59.491Z,99291.25
2022-12-11T10:31:39.137Z,99287.56
2022-12-11T10:34:13.396Z,99289.47
2022-12-11T10:36:41.426Z,99285.78
2022-12-11T10:39:26.191Z,99283.34
2022-12-11T10:41:54.213Z,99276.28
2022-12-11T10:44:25.513Z,99269.22
2022-12-11T10:47:12.750Z,99269.38
2022-12-11T10:49:43.460Z,99272.16
2022-12-11T10:52:21.146Z,99265.03
2022-12-11T10:54:55.746Z,99260.66
2022-12-11T10:57:28.348Z,99264.84
2022-12-11T10:59:55.162Z,99255.88
2022-12-11T11:02:24.336Z,99253.84
2022-12-11T11:04:51.157Z,99242.78
2022-12-11T11:07:20.369Z,99247.09
2022-12-11T11:09:47.843Z,99246.41
2022-12-11T11:12:26.378Z,99248.34
2022-12-11T11:15:00.556Z,99252.59
2022-12-11T11:17:30.753Z,99240.53
2022-12-11T11:20:07.385Z,99242.38
2022-12-11T11:22:39.078Z,99243.06
2022-12-11T11:25:06.060Z,99243.88
2022-12-11T11:27:40.605Z,99244.03
2022-12-11T11:30:19.115Z,99243.13
2022-12-11T11:32:45.825Z,99229.34
2022-12-11T11:35:12.566Z,99230.19
2022-12-11T11:37:42.177Z,99224.91
2022-12-11T11:40:19.440Z,99230.75
2022-12-11T11:42:52.823Z,99236.47
2022-12-11T11:45:26.345Z,99230.97
2022-12-11T11:48:09.468Z,99223.91
2022-12-11T11:50:40.904Z,99217.97
2022-12-11T11:53:29.275Z,99223.00
2022-12-11T11:56:24.116Z,99217.66
2022-12-11T11:59:14.732Z,99225.53
2022-12-11T12:01:43.041Z,99220.56
2022-12-11T12:04:09.450Z,99218.16
2022-12-11T12:07:04.837Z,99219.13
2022-12-11T12:09:44.646Z,99217.63
2022-12-11T12:12:39.005Z,99220.25
2022-12-11T12:15:25.231Z,99219.38
2022-12-11T12:17:56.634Z,99215.09
2022-12-11T12:20:39.605Z,99218.06
2022-12-11T12:23:36.876Z,99215.47
2022-12-11T12:26:12.712Z,99217.19
2022-12-11T12:29:14.386Z,99211.06
2022-12-11T12:32:19.424Z,99217.78
2022-12-11T12:35:15.471Z,99214.56
2022-12-11T12:37:58.765Z,99218.97
2022-12-11T12:40:49.915Z,99210.47
2022-12-11T12:43:25.323Z,99207.13
2022-12-11T12:46:04.822Z,99206.50
2022-12-11T12:48:31.809Z,99210.16
2022-12-11T12:50:58.426Z,99210.00
2022-12-11T12:53:28.743Z,99218.75
2022-12-11T12:55:55.474Z,99211.13
2022-12-11T12:58:41.307Z,99217.16
2022-12-11T13:01:17.348Z,99215.50
2022-12-11T13:03:54.519Z,99215.50
2022-12-11T13:06:40.719Z,99219.03
2022-12-11T13:09:26.925Z,99216.38
2022-12-11T13:11:57.590Z,99211.19
2022-12-11T13:14:32.398Z,99216.47
2022-12-11T13:17:22.248Z,99206.75
2022-12-11T13:19:49.985Z,99205.69
2022-12-11T13:22:16.297Z,99198.69
2022-12-11T13:24:47.099Z,99204.63
2022-12-11T13:27:27.523Z,99205.41
2022-12-11T13:30:05.074Z,99209.78
2022-12-11T13:32:31.593Z,99207.84
2022-12-11T13:34:59.336Z,99215.41
2022-12-11T13:37:35.869Z,99213.06
2022-12-11T13:40:05.626Z,99210.56
2022-12-11T13:42:35.971Z,99212.31
2022-12-11T13:45:03.363Z,99210.78
2022-12-11T13:47:31.529Z,99196.25
2022-12-11T13:50:14.925Z,99207.44
2022-12-11T13:52:41.384Z,99206.31
2022-12-11T13:55:20.059Z,99203.66
2022-12-11T13:57:46.714Z,99203.63
2022-12-11T14:00:25.775Z,99207.94
2022-12-11T14:02:53.519Z,99210.50
2022-12-11T14:05:20.976Z,99210.69
2022-12-11T14:07:50.470Z,99219.31
2022-12-11T14:10:20.747Z,99224.59
2022-12-11T14:12:56.574Z,99226.34
2022-12-11T14:15:23.247Z,99235.94
2022-12-11T14:17:51.961Z,99234.47
2022-12-11T14:20:24.646Z,99236.03
2022-12-11T14:22:51.113Z,99235.06
2022-12-11T14:25:24.708Z,99230.63
2022-12-11T14:27:53.536Z,99229.44
2022-12-11T14:30:31.770Z,99236.56
2022-12-11T14:33:00.241Z,99238.56
2022-12-11T14:35:37.105Z,99237.81
2022-12-11T14:38:13.255Z,99237.94
2022-12-11T14:40:42.322Z,99244.81
2022-12-11T14:43:20.306Z,99250.06
2022-12-11T14:45:48.814Z,99245.63
2022-12-11T14:48:28.378Z,99244.59
2022-12-11T14:50:57.838Z,99245.63
2022-12-11T14:53:27.935Z,99257.88
2022-12-11T14:55:55.712Z,99257.72
2022-12-11T14:58:24.939Z,99254.97
2022-12-11T15:01:21.817Z,99253.66
2022-12-11T15:03:48.385Z,99252.81
2022-12-11T15:06:26.239Z,99252.38
2022-12-11T15:08:52.998Z,99245.63
2022-12-11T15:11:19.442Z,99241.22
2022-12-11T15:13:56.773Z,99261.22
2022-12-11T15:16:24.881Z,99250.81
2022-12-11T15:18:53.006Z,99254.91
2022-12-11T15:21:19.843Z,99256.47
2022-12-11T15:23:52.509Z,99256.34
2022-12-11T15:26:20.603Z,99255.38
2022-12-11T15:28:47.118Z,99261.41
2022-12-11T15:31:27.529Z,99269.34
2022-12-11T15:33:54.486Z,99259.09
2022-12-11T15:36:33.111Z,99256.69
2022-12-11T15:38:59.712Z,99268.00
2022-12-11T15:41:26.676Z,99266.22
2022-12-11T15:43:58.880Z,99259.25
2022-12-11T15:46:26.015Z,99249.69
2022-12-11T15:48:52.528Z,99256.63
2022-12-11T15:51:18.968Z,99257.59
2022-12-11T15:53:45.372Z,99268.00
2022-12-11T15:56:18.277Z,99270.56
2022-12-11T15:58:45.697Z,99270.50
2022-12-11T16:01:12.275Z,99273.00
2022-12-11T16:03:38.766Z,99260.78
2022-12-11T16:06:05.369Z,99265.72
2022-12-11T16:08:32.179Z,99265.81
2022-12-11T16:10:59.769Z,99265.88
2022-12-11T16:13:26.928Z,99270.13
2022-12-11T16:15:54.124Z,99264.84
2022-12-11T16:18:22.411Z,99268.25
2022-12-11T16:20:49.682Z,99267.25
2022-12-11T16:23:17.132Z,99271.59
2022-12-11T16:25:45.050Z,99261.00
2022-12-11T16:28:13.781Z,99257.34
2022-12-11T16:30:40.390Z,99252.09
2022-12-11T16:33:12.480Z,99250.16
2022-12-11T16:35:40.159Z,99251.88
2022-12-11T16:38:07.908Z,99246.81
2022-12-11T16:40:34.313Z,99243.38
2022-12-11T16:43:00.779Z,99255.56
2022-12-11T16:45:27.888Z,99252.22
2022-12-11T16:47:54.547Z,99256.59
2022-12-11T16:50:23.695Z,99248.88
2022-12-11T16:52:51.217Z,99252.22
2022-12-11T16:55:20.985Z,99255.72
2022-12-11T16:57:47.691Z,99253.72
2022-12-11T17:00:14.335Z,99260.75
2022-12-11T17:02:41.154Z,99259.00
2022-12-11T17:05:07.986Z,99253.91
2022-12-11T17:07:34.597Z,99256.25
2022-12-11T17:10:02.776Z,99251.03
2022-12-11T17:12:29.838Z,99244.84
2022-12-11T17:14:57.051Z,99246.38
2022-12-11T17:17:24.133Z,99244.56
2022-12-11T17:19:50.637Z,99238.44
2022-12-11T17:22:17.122Z,99240.31
2022-12-11T17:24:43.583Z,99239.66
2022-12-11T17:27:10.288Z,99239.81
2022-12-11T17:29:36.801Z,99237.16
2022-12-11T17:32:03.347Z,99233.69
2022-12-11T17:34:34.635Z,99239.69
2022-12-11T17:37:04.386Z,99237.06
2022-12-11T17:39:30.825Z,99242.19
2022-12-11T17:41:57.268Z,99233.69
2022-12-11T17:44:26.505Z,99237.06
2022-12-11T17:46:53.134Z,99233.41
2022-12-11T17:49:19.730Z,99237.03
2022-12-11T17:51:47.803Z,99238.91
2022-12-11T17:54:14.262Z,99234.16
2022-12-11T17:56:40.769Z,99230.88
2022-12-11T17:59:07.169Z,99233.69
2022-12-11T18:01:33.819Z,99225.22
2022-12-11T18:04:01.812Z,99231.22
2022-12-11T18:06:28.779Z,99237.16
2022-12-11T18:08:55.749Z,99236.34
2022-12-11T18:11:22.524Z,99226.63
2022-12-11T18:13:51.337Z,99230.94
2022-12-11T18:16:26.301Z,99234.16
2022-12-11T18:18:53.403Z,99223.91
2022-12-11T18:21:26.059Z,99227.47
2022-12-11T18:23:52.997Z,99234.31
2022-12-11T18:26:19.696Z,99237.16
2022-12-11T18:28:47.319Z,99237.03
2022-12-11T18:31:14.210Z,99234.28
2022-12-11T18:33:42.411Z,99234.09
2022-12-11T18:36:09.535Z,99240.94
2022-12-11T18:38:36.431Z,99236.41
2022-12-11T18:41:04.829Z,99236.53
2022-12-11T18:43:31.231Z,99231.44
2022-12-11T18:45:57.725Z,99232.34
2022-12-11T18:48:25.454Z,99247.06
2022-12-11T18:50:52.224Z,99249.59
2022-12-11T18:53:19.508Z,99248.59
2022-12-11T18:55:47.885Z,99239.97
2022-12-11T18:58:17.460Z,99240.94
2022-12-11T19:00:45.283Z,99238.63
2022-12-11T19:03:13.568Z,99234.44
2022-12-11T19:05:42.430Z,99232.63
2022-12-11T19:08:09.559Z,99231.78
2022-12-11T19:10:42.586Z,99235.28
2022-12-11T19:13:09.078Z,99240.53
2022-12-11T19:15:39.160Z,99243.88
2022-12-11T19:18:06.449Z,99242.78
2022-12-11T19:23:23.121Z,99237.34
2022-12-11T19:25:50.443Z,99240.03
2022-12-11T19:28:18.501Z,99226.19
2022-12-11T19:30:49.089Z,99237.38
2022-12-11T19:33:16.354Z,99232.28
2022-12-11T19:35:43.186Z,99229.69
2022-12-11T19:38:09.881Z,99231.47
2022-12-11T19:40:43.362Z,99234.22
2022-12-11T19:43:10.465Z,99218.81
2022-12-11T19:45:36.947Z,99224.03
2022-12-11T19:48:03.505Z,99233.63
2022-12-11T19:50:30.166Z,99225.81
2022-12-11T19:52:56.629Z,99227.72
2022-12-11T19:55:23.100Z,99224.38
2022-12-11T19:57:49.509Z,99227.75
2022-12-11T20:00:16.121Z,99228.69
2022-12-11T20:02:42.677Z,99228.81
2022-12-11T20:05:09.793Z,99231.38
2022-12-11T20:07:36.512Z,99219.22
2022-12-11T20:10:03.062Z,99225.25
2022-12-11T20:12:29.507Z,99229.63
2022-12-11T20:14:55.909Z,99219.44
2022-12-11T20:17:22.359Z,99235.13
2022-12-11T20:19:49.513Z,99231.50
2022-12-11T20:22:15.877Z,99239.34
2022-12-11T20:24:42.271Z,99239.09
2022-12-11T20:27:09.439Z,99226.84
2022-12-11T20:29:37.208Z,99232.84
2022-12-11T20:32:03.798Z,99232.84
2022-12-11T20:34:30.450Z,99236.34
2022-12-11T20:36:56.871Z,99236.47
2022-12-11T20:39:23.392Z,99221.84
2022-12-11T20:41:49.850Z,99233.88
2022-12-11T20:44:16.328Z,99222.53
2022-12-11T20:46:42.710Z,99229.63
2022-12-11T20:49:12.741Z,99234.19
2022-12-11T20:51:39.925Z,99228.00
2022-12-11T20:54:06.435Z,99230.69
2022-12-11T20:56:33.176Z,99234.41
2022-12-11T20:59:00.572Z,99234.38
2022-12-11T21:01:29.707Z,99231.91
2022-12-11T21:03:56.260Z,99238.75
2022-12-11T21:06:25.874Z,99244.50
2022-12-11T21:08:53.083Z,99246.97
2022-12-11T21:11:20.018Z,99249.53
2022-12-11T21:13:50.072Z,99254.56
2022-12-11T21:16:18.233Z,99246.63
2022-12-11T21:18:46.428Z,99251.75
2022-12-11T21:21:13.068Z,99240.59
2022-12-11T21:23:39.575Z,99245.75
2022-12-11T21:26:06.442Z,99248.53
2022-12-11T21:28:35.516Z,99239.84
2022-12-11T21:31:04.132Z,99229.56
2022-12-11T21:33:30.542Z,99225.34
2022-12-11T21:35:57.807Z,99240.06
2022-12-11T21:38:24.622Z,99236.97
2022-12-11T21:40:52.034Z,99242.31
2022-12-11T21:43:18.638Z,99237.06
2022-12-11T21:46:01.681Z,99238.63
2022-12-11T21:48:29.308Z,99240.31
2022-12-11T21:50:56.115Z,99242.00
2022-12-11T21:53:22.850Z,99249.22
2022-12-11T21:55:49.268Z,99255.81
2022-12-11T21:58:15.721Z,99257.78
2022-12-11T22:00:42.360Z,99254.97
2022-12-11T22:03:08.857Z,99254.50
2022-12-11T22:05:35.263Z,99252.38
2022-12-11T22:08:02.157Z,99245.06
2022-12-11T22:10:28.957Z,99243.94
2022-12-11T22:12:55.529Z,99244.63
2022-12-11T22:15:22.118Z,99248.88
2022-12-11T22:17:48.889Z,99241.97
2022-12-11T22:20:15.378Z,99243.81
2022-12-11T22:22:41.950Z,99252.53
2022-12-11T22:25:09.659Z,99254.41
2022-12-11T22:27:36.450Z,99250.19
2022-12-11T22:30:03.982Z,99256.22
2022-12-11T22:32:30.497Z,99258.06
2022-12-11T22:34:57.704Z,99257.22
2022-12-11T22:37:24.569Z,99264.97
2022-12-11T22:39:51.051Z,99259.16
2022-12-11T22:42:17.601Z,99258.19
2022-12-11T22:44:44.052Z,99258.97
2022-12-11T22:47:10.468Z,99256.34
2022-12-11T22:49:38.090Z,99251.16
2022-12-11T22:52:04.700Z,99249.38
2022-12-11T22:54:31.106Z,99242.53
2022-12-11T22:56:58.032Z,99245.97
2022-12-11T22:59:24.589Z,99244.31
2022-12-11T23:02:20.245Z,99247.16
2022-12-11T23:04:46.965Z,99243.97
2022-12-11T23:07:13.398Z,99243.13
2022-12-11T23:09:39.930Z,99247.25
2022-12-11T23:12:06.788Z,99242.19
2022-12-11T23:14:33.328Z,99249.91
2022-12-11T23:17:07.147Z,99245.66
2022-12-11T23:19:34.534Z,99244.72
2022-12-11T23:22:00.915Z,99236.09
2022-12-11T23:24:27.541Z,99231.09
2022-12-11T23:26:54.181Z,99229.47
2022-12-11T23:29:21.884Z,99223.44
2022-12-11T23:31:48.962Z,99241.31
2022-12-11T23:34:15.523Z,99253.63
2022-12-11T23:36:42.076Z,99248.59
2022-12-11T23:39:08.514Z,99247.13
2022-12-11T23:41:35.011Z,99256.81
2022-12-11T23:44:01.669Z,99259.44
2022-12-11T23:46:28.440Z,99255.06
2022-12-11T23:48:59.279Z,99260.22
2022-12-11T23:51:25.771Z,99263.47
2022-12-11T23:53:52.399Z,99264.03
2022-12-11T23:56:24.489Z,99264.91
2022-12-11T23:58:52.010Z,99268.22
